createdAt,value
2018-07-30T00:00:17.775Z,1003.91
2018-07-30T00:01:17.679Z,1003.95
2018-07-30T00:02:17.778Z,1003.93
2018-07-30T00:03:17.839Z,1003.90
2018-07-30T00:04:17.744Z,1003.94
2018-07-30T00:05:17.785Z,1003.94
2018-07-30T00:06:17.814Z,1003.93
2018-07-30T00:07:17.721Z,1003.93
2018-07-30T00:08:17.819Z,1003.92
2018-07-30T00:09:17.826Z,1003.89
2018-07-30T00:10:17.751Z,1003.90
2018-07-30T00:11:17.803Z,1003.91
2018-07-30T00:12:17.822Z,1003.94
2018-07-30T00:13:17.751Z,1003.92
2018-07-30T00:14:17.775Z,1003.89
2018-07-30T00:15:17.791Z,1003.92
2018-07-30T00:16:17.843Z,1003.93
2018-07-30T00:17:17.789Z,1003.90
2018-07-30T00:18:17.749Z,1003.91
2018-07-30T00:19:17.720Z,1003.89
2018-07-30T00:20:17.722Z,1003.88
2018-07-30T00:21:17.834Z,1003.89
2018-07-30T00:22:17.729Z,1003.87
2018-07-30T00:23:17.817Z,1003.85
2018-07-30T00:24:17.729Z,1003.92
2018-07-30T00:25:17.733Z,1003.92
2018-07-30T00:26:17.726Z,1003.90
2018-07-30T00:27:17.727Z,1003.89
2018-07-30T00:28:17.727Z,1003.94
2018-07-30T00:29:17.799Z,1003.95
2018-07-30T00:30:17.797Z,1003.89
2018-07-30T00:31:17.785Z,1003.93
2018-07-30T00:32:17.799Z,1003.93
2018-07-30T00:33:17.812Z,1003.94
2018-07-30T00:34:17.803Z,1003.94
2018-07-30T00:35:17.803Z,1003.91
2018-07-30T00:36:17.742Z,1004.00
2018-07-30T00:37:17.741Z,1003.97
2018-07-30T00:38:17.804Z,1003.97
2018-07-30T00:39:17.861Z,1003.96
2018-07-30T00:40:17.739Z,1003.94
2018-07-30T00:41:17.805Z,1003.98
2018-07-30T00:42:17.693Z,1003.98
2018-07-30T00:43:17.807Z,1004.00
2018-07-30T00:44:17.791Z,1004.00
2018-07-30T00:45:17.737Z,1004.02
2018-07-30T00:46:17.775Z,1003.97
2018-07-30T00:47:17.794Z,1004.02
2018-07-30T00:48:17.697Z,1004.03
2018-07-30T00:49:17.801Z,1004.06
2018-07-30T00:50:17.737Z,1004.08
2018-07-30T00:51:17.715Z,1004.12
2018-07-30T00:52:17.789Z,1004.12
2018-07-30T00:53:17.684Z,1004.18
2018-07-30T00:54:17.774Z,1004.18
2018-07-30T00:55:17.834Z,1004.19
2018-07-30T00:56:17.808Z,1004.21
2018-07-30T00:57:17.782Z,1004.19
2018-07-30T00:58:17.724Z,1004.18
2018-07-30T00:59:17.808Z,1004.20
2018-07-30T01:00:17.689Z,1004.17
2018-07-30T01:01:17.726Z,1004.24
2018-07-30T01:02:17.767Z,1004.19
2018-07-30T01:03:17.818Z,1004.15
2018-07-30T01:04:17.853Z,1004.15
2018-07-30T01:05:17.853Z,1004.15
2018-07-30T01:06:17.742Z,1004.16
2018-07-30T01:07:17.823Z,1004.17
2018-07-30T01:08:17.829Z,1004.23
2018-07-30T01:09:17.854Z,1004.18
2018-07-30T01:10:17.749Z,1004.19
2018-07-30T01:11:17.827Z,1004.24
2018-07-30T01:12:17.836Z,1004.22
2018-07-30T01:13:17.797Z,1004.24
2018-07-30T01:14:17.786Z,1004.27
2018-07-30T01:15:17.848Z,1004.30
2018-07-30T01:16:17.828Z,1004.27
2018-07-30T01:17:17.734Z,1004.32
2018-07-30T01:18:17.872Z,1004.32
2018-07-30T01:19:17.738Z,1004.36
2018-07-30T01:20:17.871Z,1004.37
2018-07-30T01:21:17.802Z,1004.40
2018-07-30T01:22:17.839Z,1004.37
2018-07-30T01:23:17.795Z,1004.40
2018-07-30T01:24:17.808Z,1004.41
2018-07-30T01:25:17.853Z,1004.40
2018-07-30T01:26:17.743Z,1004.39
2018-07-30T01:27:17.760Z,1004.39
2018-07-30T01:28:17.807Z,1004.41
2018-07-30T01:29:17.843Z,1004.38
2018-07-30T01:30:17.842Z,1004.40
2018-07-30T01:31:17.821Z,1004.36
2018-07-30T01:32:17.875Z,1004.42
2018-07-30T01:33:17.866Z,1004.37
2018-07-30T01:34:17.842Z,1004.38
2018-07-30T01:35:17.742Z,1004.38
2018-07-30T01:36:17.871Z,1004.37
2018-07-30T01:37:17.748Z,1004.35
2018-07-30T01:38:17.872Z,1004.36
2018-07-30T01:39:17.768Z,1004.36
2018-07-30T01:40:17.887Z,1004.39
2018-07-30T01:41:17.845Z,1004.41
2018-07-30T01:42:17.879Z,1004.40
2018-07-30T01:43:17.818Z,1004.40
2018-07-30T01:44:17.889Z,1004.39
2018-07-30T01:45:17.882Z,1004.42
2018-07-30T01:46:17.831Z,1004.42
2018-07-30T01:47:17.850Z,1004.42
2018-07-30T01:48:17.876Z,1004.42
2018-07-30T01:49:17.759Z,1004.45
2018-07-30T01:50:17.752Z,1004.47
2018-07-30T01:51:17.832Z,1004.48
2018-07-30T01:52:17.877Z,1004.48
2018-07-30T01:53:17.814Z,1004.51
2018-07-30T01:54:17.825Z,1004.52
2018-07-30T01:55:17.797Z,1004.53
2018-07-30T01:56:17.860Z,1004.47
2018-07-30T01:57:17.857Z,1004.49
2018-07-30T01:58:17.863Z,1004.50
2018-07-30T01:59:17.792Z,1004.48
2018-07-30T02:00:17.861Z,1004.49
2018-07-30T02:01:17.793Z,1004.48
2018-07-30T02:02:17.796Z,1004.49
2018-07-30T02:03:17.797Z,1004.48
2018-07-30T02:04:17.844Z,1004.48
2018-07-30T02:05:17.906Z,1004.54
2018-07-30T02:06:17.845Z,1004.55
2018-07-30T02:07:17.833Z,1004.58
2018-07-30T02:08:17.907Z,1004.58
2018-07-30T02:09:17.850Z,1004.60
2018-07-30T02:10:17.925Z,1004.62
2018-07-30T02:11:17.808Z,1004.63
2018-07-30T02:12:17.906Z,1004.61
2018-07-30T02:13:17.873Z,1004.64
2018-07-30T02:14:17.885Z,1004.62
2018-07-30T02:15:17.834Z,1004.61
2018-07-30T02:16:17.908Z,1004.63
2018-07-30T02:17:17.908Z,1004.63
2018-07-30T02:18:17.910Z,1004.64
2018-07-30T02:19:17.846Z,1004.61
2018-07-30T02:20:18.013Z,1004.66
2018-07-30T02:21:17.795Z,1004.65
2018-07-30T02:22:17.810Z,1004.71
2018-07-30T02:23:17.814Z,1004.70
2018-07-30T02:24:17.912Z,1004.70
2018-07-30T02:25:17.906Z,1004.69
2018-07-30T02:26:17.814Z,1004.67
2018-07-30T02:27:17.786Z,1004.68
2018-07-30T02:28:17.850Z,1004.68
2018-07-30T02:29:17.914Z,1004.67
2018-07-30T02:30:17.883Z,1004.70
2018-07-30T02:31:17.842Z,1004.70
2018-07-30T02:32:17.807Z,1004.68
2018-07-30T02:33:17.859Z,1004.65
2018-07-30T02:34:17.904Z,1004.74
2018-07-30T02:35:17.791Z,1004.76
2018-07-30T02:36:17.787Z,1004.76
2018-07-30T02:37:17.825Z,1004.78
2018-07-30T02:38:17.857Z,1004.76
2018-07-30T02:39:17.790Z,1004.76
2018-07-30T02:40:17.918Z,1004.77
2018-07-30T02:41:17.830Z,1004.76
2018-07-30T02:42:17.868Z,1004.75
2018-07-30T02:43:17.889Z,1004.76
2018-07-30T02:44:17.862Z,1004.76
2018-07-30T02:45:17.855Z,1004.79
2018-07-30T02:46:17.930Z,1004.77
2018-07-30T02:47:17.815Z,1004.82
2018-07-30T02:48:17.913Z,1004.80
2018-07-30T02:49:17.917Z,1004.75
2018-07-30T02:50:17.906Z,1004.77
2018-07-30T02:51:17.864Z,1004.77
2018-07-30T02:52:17.929Z,1004.78
2018-07-30T02:53:17.939Z,1004.76
2018-07-30T02:54:17.955Z,1004.80
2018-07-30T02:55:17.835Z,1004.79
2018-07-30T02:56:17.902Z,1004.85
2018-07-30T02:57:17.835Z,1004.83
2018-07-30T02:58:17.845Z,1004.83
2018-07-30T02:59:17.906Z,1004.81
2018-07-30T03:00:17.920Z,1004.81
2018-07-30T03:01:17.840Z,1004.80
2018-07-30T03:02:17.904Z,1004.79
2018-07-30T03:03:17.905Z,1004.79
2018-07-30T03:04:17.898Z,1004.78
2018-07-30T03:05:17.777Z,1004.82
2018-07-30T03:06:17.899Z,1004.83
2018-07-30T03:07:17.837Z,1004.80
2018-07-30T03:08:17.776Z,1004.82
2018-07-30T03:09:17.927Z,1004.80
2018-07-30T03:10:17.864Z,1004.82
2018-07-30T03:11:17.888Z,1004.83
2018-07-30T03:12:17.902Z,1004.85
2018-07-30T03:13:17.781Z,1004.86
2018-07-30T03:14:17.842Z,1004.85
2018-07-30T03:15:17.846Z,1004.85
2018-07-30T03:16:17.939Z,1004.89
2018-07-30T03:17:17.850Z,1004.89
2018-07-30T03:18:17.920Z,1004.89
2018-07-30T03:19:17.853Z,1004.91
2018-07-30T03:20:17.926Z,1004.95
2018-07-30T03:21:17.849Z,1004.95
2018-07-30T03:22:17.851Z,1004.93
2018-07-30T03:23:17.851Z,1004.95
2018-07-30T03:24:17.857Z,1004.92
2018-07-30T03:25:17.892Z,1004.94
2018-07-30T03:26:17.979Z,1004.95
2018-07-30T03:27:17.826Z,1004.96
2018-07-30T03:28:17.822Z,1004.93
2018-07-30T03:29:17.955Z,1004.91
2018-07-30T03:30:17.924Z,1004.93
2018-07-30T03:31:17.899Z,1004.94
2018-07-30T03:32:17.982Z,1004.98
2018-07-30T03:33:17.929Z,1004.93
2018-07-30T03:34:17.960Z,1004.95
2018-07-30T03:35:17.920Z,1004.94
2018-07-30T03:36:17.870Z,1004.95
2018-07-30T03:37:17.848Z,1004.95
2018-07-30T03:38:17.885Z,1005.01
2018-07-30T03:39:17.925Z,1004.95
2018-07-30T03:40:17.928Z,1004.91
2018-07-30T03:41:17.854Z,1004.95
2018-07-30T03:42:17.816Z,1004.88
2018-07-30T03:43:17.928Z,1004.88
2018-07-30T03:44:17.855Z,1004.90
2018-07-30T03:45:17.970Z,1004.91
2018-07-30T03:46:17.960Z,1004.92
2018-07-30T03:47:17.963Z,1004.91
2018-07-30T03:48:17.908Z,1004.92
2018-07-30T03:49:17.842Z,1004.93
2018-07-30T03:50:17.857Z,1004.92
2018-07-30T03:51:17.878Z,1004.93
2018-07-30T03:52:17.981Z,1004.92
2018-07-30T03:53:17.999Z,1004.93
2018-07-30T03:54:17.980Z,1004.96
2018-07-30T03:55:17.877Z,1005.00
2018-07-30T03:56:17.985Z,1004.98
2018-07-30T03:57:17.982Z,1004.94
2018-07-30T03:58:17.849Z,1004.99
2018-07-30T03:59:17.961Z,1004.94
2018-07-30T04:00:18.029Z,1004.96
2018-07-30T04:01:17.864Z,1004.93
2018-07-30T04:02:17.883Z,1004.97
2018-07-30T04:03:17.882Z,1004.95
2018-07-30T04:04:17.913Z,1004.88
2018-07-30T04:05:17.972Z,1004.88
2018-07-30T04:06:17.966Z,1004.85
2018-07-30T04:07:17.976Z,1004.90
2018-07-30T04:08:17.857Z,1004.85
2018-07-30T04:09:17.911Z,1004.87
2018-07-30T04:10:17.973Z,1004.87
2018-07-30T04:11:17.918Z,1004.89
2018-07-30T04:12:17.929Z,1004.85
2018-07-30T04:13:17.947Z,1004.88
2018-07-30T04:14:17.978Z,1004.86
2018-07-30T04:15:17.908Z,1004.86
2018-07-30T04:16:17.978Z,1004.89
2018-07-30T04:17:17.953Z,1004.91
2018-07-30T04:18:17.928Z,1004.89
2018-07-30T04:19:17.976Z,1004.91
2018-07-30T04:20:17.882Z,1004.89
2018-07-30T04:21:17.923Z,1004.91
2018-07-30T04:22:18.104Z,1004.90
2018-07-30T04:23:17.866Z,1004.90
2018-07-30T04:24:17.958Z,1004.89
2018-07-30T04:25:17.996Z,1004.91
2018-07-30T04:26:17.985Z,1004.91
2018-07-30T04:27:17.867Z,1004.94
2018-07-30T04:28:17.992Z,1004.95
2018-07-30T04:29:17.922Z,1004.94
2018-07-30T04:30:18.001Z,1004.97
2018-07-30T04:31:18.003Z,1004.97
2018-07-30T04:32:18.003Z,1005.02
2018-07-30T04:33:17.929Z,1005.05
2018-07-30T04:34:17.887Z,1005.02
2018-07-30T04:35:17.969Z,1005.02
2018-07-30T04:36:17.905Z,1005.02
2018-07-30T04:37:17.899Z,1005.04
2018-07-30T04:38:17.968Z,1005.02
2018-07-30T04:39:17.904Z,1005.06
2018-07-30T04:40:17.907Z,1005.08
2018-07-30T04:41:17.902Z,1005.08
2018-07-30T04:42:17.905Z,1005.08
2018-07-30T04:43:17.976Z,1005.07
2018-07-30T04:44:17.972Z,1005.06
2018-07-30T04:45:17.936Z,1005.11
2018-07-30T04:46:17.940Z,1005.10
2018-07-30T04:47:17.976Z,1005.09
2018-07-30T04:48:18.012Z,1005.15
2018-07-30T04:49:17.981Z,1005.13
2018-07-30T04:50:17.939Z,1005.14
2018-07-30T04:51:18.012Z,1005.13
2018-07-30T04:52:18.019Z,1005.12
2018-07-30T04:53:17.944Z,1005.08
2018-07-30T04:54:17.945Z,1005.11
2018-07-30T04:55:17.878Z,1005.11
2018-07-30T04:56:17.887Z,1005.12
2018-07-30T04:57:17.937Z,1005.13
2018-07-30T04:58:17.962Z,1005.13
2018-07-30T04:59:17.935Z,1005.14
2018-07-30T05:00:17.950Z,1005.10
2018-07-30T05:01:18.016Z,1005.13
2018-07-30T05:02:17.885Z,1005.12
2018-07-30T05:03:17.937Z,1005.11
2018-07-30T05:04:18.026Z,1005.14
2018-07-30T05:05:17.857Z,1005.13
2018-07-30T05:06:17.982Z,1005.15
2018-07-30T05:07:17.895Z,1005.10
2018-07-30T05:08:17.983Z,1005.13
2018-07-30T05:09:17.975Z,1005.15
2018-07-30T05:10:17.892Z,1005.13
2018-07-30T05:11:17.942Z,1005.15
2018-07-30T05:12:17.859Z,1005.15
2018-07-30T05:13:17.879Z,1005.11
2018-07-30T05:14:17.864Z,1005.15
2018-07-30T05:15:17.949Z,1005.17
2018-07-30T05:16:18.028Z,1005.13
2018-07-30T05:17:17.961Z,1005.15
2018-07-30T05:18:17.948Z,1005.14
2018-07-30T05:19:18.038Z,1005.16
2018-07-30T05:20:17.999Z,1005.16
2018-07-30T05:21:17.999Z,1005.09
2018-07-30T05:22:17.971Z,1005.12
2018-07-30T05:23:17.961Z,1005.14
2018-07-30T05:24:17.978Z,1005.13
2018-07-30T05:25:18.000Z,1005.14
2018-07-30T05:26:17.902Z,1005.13
2018-07-30T05:27:17.925Z,1005.14
2018-07-30T05:28:18.003Z,1005.10
2018-07-30T05:29:17.903Z,1005.09
2018-07-30T05:30:17.928Z,1005.14
2018-07-30T05:31:17.927Z,1005.08
2018-07-30T05:32:18.031Z,1005.08
2018-07-30T05:33:17.914Z,1005.12
2018-07-30T05:34:18.041Z,1005.13
2018-07-30T05:35:17.973Z,1005.10
2018-07-30T05:36:18.049Z,1005.18
2018-07-30T05:37:18.080Z,1005.16
2018-07-30T05:38:18.047Z,1005.17
2018-07-30T05:39:18.026Z,1005.15
2018-07-30T05:40:17.916Z,1005.20
2018-07-30T05:41:17.913Z,1005.20
2018-07-30T05:42:18.045Z,1005.19
2018-07-30T05:43:17.982Z,1005.24
2018-07-30T05:44:18.047Z,1005.24
2018-07-30T05:45:18.008Z,1005.22
2018-07-30T05:46:17.925Z,1005.22
2018-07-30T05:47:18.019Z,1005.21
2018-07-30T05:48:18.008Z,1005.25
2018-07-30T05:49:17.921Z,1005.20
2018-07-30T05:50:17.963Z,1005.21
2018-07-30T05:51:18.010Z,1005.22
2018-07-30T05:52:18.017Z,1005.23
2018-07-30T05:53:17.929Z,1005.21
2018-07-30T05:54:17.898Z,1005.20
2018-07-30T05:55:18.058Z,1005.26
2018-07-30T05:56:18.050Z,1005.21
2018-07-30T05:57:17.947Z,1005.21
2018-07-30T05:58:18.061Z,1005.24
2018-07-30T05:59:17.988Z,1005.26
2018-07-30T06:00:18.013Z,1005.27
2018-07-30T06:01:18.028Z,1005.22
2018-07-30T06:02:18.112Z,1005.20
2018-07-30T06:03:18.053Z,1005.24
2018-07-30T06:04:18.063Z,1005.20
2018-07-30T06:05:17.989Z,1005.18
2018-07-30T06:06:18.030Z,1005.20
2018-07-30T06:07:17.953Z,1005.24
2018-07-30T06:08:18.001Z,1005.24
2018-07-30T06:09:18.035Z,1005.24
2018-07-30T06:10:17.992Z,1005.27
2018-07-30T06:11:17.992Z,1005.26
2018-07-30T06:12:17.956Z,1005.30
2018-07-30T06:13:18.032Z,1005.29
2018-07-30T06:14:18.062Z,1005.32
2018-07-30T06:15:18.040Z,1005.33
2018-07-30T06:16:17.974Z,1005.35
2018-07-30T06:17:17.973Z,1005.36
2018-07-30T06:18:18.025Z,1005.37
2018-07-30T06:19:17.974Z,1005.39
2018-07-30T06:20:18.042Z,1005.40
2018-07-30T06:21:18.043Z,1005.43
2018-07-30T06:22:18.012Z,1005.42
2018-07-30T06:23:17.979Z,1005.45
2018-07-30T06:24:17.976Z,1005.47
2018-07-30T06:25:18.001Z,1005.44
2018-07-30T06:26:18.011Z,1005.47
2018-07-30T06:27:18.181Z,1005.46
2018-07-30T06:28:18.049Z,1005.48
2018-07-30T06:29:18.046Z,1005.48
2018-07-30T06:30:18.011Z,1005.48
2018-07-30T06:31:18.087Z,1005.51
2018-07-30T06:32:18.029Z,1005.51
2018-07-30T06:33:17.989Z,1005.51
2018-07-30T06:34:18.029Z,1005.50
2018-07-30T06:35:18.055Z,1005.48
2018-07-30T06:36:17.983Z,1005.49
2018-07-30T06:37:17.983Z,1005.48
2018-07-30T06:38:17.984Z,1005.47
2018-07-30T06:39:17.991Z,1005.44
2018-07-30T06:40:17.990Z,1005.44
2018-07-30T06:41:18.056Z,1005.40
2018-07-30T06:42:17.992Z,1005.42
2018-07-30T06:43:17.991Z,1005.45
2018-07-30T06:44:17.985Z,1005.41
2018-07-30T06:45:18.055Z,1005.41
2018-07-30T06:46:18.077Z,1005.40
2018-07-30T06:47:18.024Z,1005.41
2018-07-30T06:48:18.063Z,1005.43
2018-07-30T06:49:18.079Z,1005.46
2018-07-30T06:50:17.964Z,1005.43
2018-07-30T06:51:18.061Z,1005.45
2018-07-30T06:52:17.964Z,1005.48
2018-07-30T06:53:18.106Z,1005.44
2018-07-30T06:54:18.040Z,1005.44
2018-07-30T06:55:17.930Z,1005.46
2018-07-30T06:56:18.015Z,1005.47
2018-07-30T06:57:17.969Z,1005.48
2018-07-30T06:59:18.016Z,1005.51
2018-07-30T07:00:17.973Z,1005.45
2018-07-30T07:01:17.986Z,1005.45
2018-07-30T07:02:18.021Z,1005.46
2018-07-30T07:03:18.004Z,1005.44
2018-07-30T07:04:18.056Z,1005.41
2018-07-30T07:05:18.091Z,1005.45
2018-07-30T07:06:17.968Z,1005.40
2018-07-30T07:07:18.062Z,1005.43
2018-07-30T07:08:18.041Z,1005.41
2018-07-30T07:09:17.978Z,1005.38
2018-07-30T07:10:18.100Z,1005.42
2018-07-30T07:11:18.086Z,1005.42
2018-07-30T07:12:18.074Z,1005.41
2018-07-30T07:13:18.115Z,1005.44
2018-07-30T07:14:18.050Z,1005.44
2018-07-30T07:15:17.980Z,1005.44
2018-07-30T07:16:17.954Z,1005.47
2018-07-30T07:17:18.017Z,1005.45
2018-07-30T07:18:18.016Z,1005.47
2018-07-30T07:19:18.068Z,1005.49
2018-07-30T07:20:18.000Z,1005.52
2018-07-30T07:21:18.102Z,1005.51
2018-07-30T07:22:17.950Z,1005.50
2018-07-30T07:23:17.993Z,1005.49
2018-07-30T07:24:18.084Z,1005.52
2018-07-30T07:25:18.056Z,1005.54
2018-07-30T07:26:18.048Z,1005.54
2018-07-30T07:27:17.988Z,1005.53
2018-07-30T07:28:18.008Z,1005.58
2018-07-30T07:29:18.113Z,1005.53
2018-07-30T07:30:18.055Z,1005.52
2018-07-30T07:31:18.060Z,1005.51
2018-07-30T07:32:18.112Z,1005.56
2018-07-30T07:33:18.056Z,1005.52
2018-07-30T07:34:18.052Z,1005.52
2018-07-30T07:35:17.992Z,1005.54
2018-07-30T07:36:17.985Z,1005.57
2018-07-30T07:37:18.026Z,1005.55
2018-07-30T07:38:18.084Z,1005.57
2018-07-30T07:39:18.004Z,1005.52
2018-07-30T07:40:18.105Z,1005.57
2018-07-30T07:41:18.043Z,1005.58
2018-07-30T07:42:18.045Z,1005.56
2018-07-30T07:43:17.950Z,1005.58
2018-07-30T07:44:18.000Z,1005.56
2018-07-30T07:45:18.059Z,1005.62
2018-07-30T07:46:18.071Z,1005.58
2018-07-30T07:47:18.128Z,1005.60
2018-07-30T07:48:18.192Z,1005.61
2018-07-30T07:49:18.121Z,1005.58
2018-07-30T07:50:18.229Z,1005.56
2018-07-30T07:51:18.134Z,1005.57
2018-07-30T07:52:18.071Z,1005.59
2018-07-30T07:53:18.069Z,1005.58
2018-07-30T07:54:18.103Z,1005.57
2018-07-30T07:55:18.140Z,1005.58
2018-07-30T07:56:18.104Z,1005.56
2018-07-30T07:57:18.048Z,1005.53
2018-07-30T07:58:18.045Z,1005.52
2018-07-30T07:59:18.049Z,1005.53
2018-07-30T08:00:18.134Z,1005.51
2018-07-30T08:01:18.133Z,1005.50
2018-07-30T08:02:18.030Z,1005.49
2018-07-30T08:03:18.079Z,1005.49
2018-07-30T08:04:18.081Z,1005.50
2018-07-30T08:05:18.081Z,1005.52
2018-07-30T08:06:18.262Z,1005.54
2018-07-30T08:07:18.112Z,1005.53
2018-07-30T08:08:18.092Z,1005.56
2018-07-30T08:09:18.018Z,1005.55
2018-07-30T08:10:18.138Z,1005.53
2018-07-30T08:11:18.133Z,1005.51
2018-07-30T08:12:18.116Z,1005.49
2018-07-30T08:13:18.027Z,1005.52
2018-07-30T08:14:18.097Z,1005.52
2018-07-30T08:15:18.163Z,1005.49
2018-07-30T08:16:18.072Z,1005.49
2018-07-30T08:17:18.157Z,1005.44
2018-07-30T08:18:18.152Z,1005.43
2018-07-30T08:19:18.022Z,1005.45
2018-07-30T08:20:18.091Z,1005.44
2018-07-30T08:21:18.090Z,1005.45
2018-07-30T08:22:18.226Z,1005.44
2018-07-30T08:23:18.030Z,1005.45
2018-07-30T08:24:18.089Z,1005.38
2018-07-30T08:25:18.095Z,1005.38
2018-07-30T08:26:18.036Z,1005.39
2018-07-30T08:27:18.094Z,1005.40
2018-07-30T08:28:18.089Z,1005.40
2018-07-30T08:29:18.100Z,1005.35
2018-07-30T08:30:18.125Z,1005.36
2018-07-30T08:31:18.168Z,1005.37
2018-07-30T08:32:18.049Z,1005.39
2018-07-30T08:33:18.089Z,1005.42
2018-07-30T08:34:18.164Z,1005.40
2018-07-30T08:35:18.064Z,1005.39
2018-07-30T08:36:18.065Z,1005.40
2018-07-30T08:37:18.132Z,1005.42
2018-07-30T08:38:18.132Z,1005.43
2018-07-30T08:39:18.070Z,1005.46
2018-07-30T08:40:18.144Z,1005.39
2018-07-30T08:41:18.024Z,1005.42
2018-07-30T08:42:18.064Z,1005.44
2018-07-30T08:43:18.140Z,1005.41
2018-07-30T08:44:18.078Z,1005.43
2018-07-30T08:45:18.171Z,1005.41
2018-07-30T08:46:18.173Z,1005.41
2018-07-30T08:47:18.122Z,1005.47
2018-07-30T08:48:18.171Z,1005.48
2018-07-30T08:49:18.114Z,1005.44
2018-07-30T08:50:18.069Z,1005.48
2018-07-30T08:51:18.178Z,1005.46
2018-07-30T08:52:18.109Z,1005.44
2018-07-30T08:53:18.178Z,1005.46
2018-07-30T08:54:18.174Z,1005.44
2018-07-30T08:55:18.137Z,1005.48
2018-07-30T08:56:18.052Z,1005.47
2018-07-30T08:57:18.067Z,1005.45
2018-07-30T08:58:18.145Z,1005.46
2018-07-30T08:59:18.148Z,1005.44
2018-07-30T09:00:18.057Z,1005.40
2018-07-30T09:01:18.069Z,1005.39
2018-07-30T09:02:18.082Z,1005.39
2018-07-30T09:03:18.041Z,1005.36
2018-07-30T09:04:18.059Z,1005.40
2018-07-30T09:05:18.124Z,1005.40
2018-07-30T09:06:18.193Z,1005.40
2018-07-30T09:07:18.192Z,1005.41
2018-07-30T09:08:18.156Z,1005.41
2018-07-30T09:09:18.132Z,1005.39
2018-07-30T09:10:18.181Z,1005.36
2018-07-30T09:11:18.133Z,1005.37
2018-07-30T09:12:18.055Z,1005.36
2018-07-30T09:13:18.192Z,1005.36
2018-07-30T09:14:18.120Z,1005.32
2018-07-30T09:15:18.181Z,1005.32
2018-07-30T09:16:18.115Z,1005.31
2018-07-30T09:17:18.246Z,1005.33
2018-07-30T09:18:18.193Z,1005.31
2018-07-30T09:19:18.144Z,1005.33
2018-07-30T09:20:18.124Z,1005.32
2018-07-30T09:21:18.137Z,1005.36
2018-07-30T09:22:18.130Z,1005.35
2018-07-30T09:23:18.190Z,1005.31
2018-07-30T09:24:18.189Z,1005.31
2018-07-30T09:25:18.164Z,1005.34
2018-07-30T09:26:18.168Z,1005.32
2018-07-30T09:27:18.104Z,1005.32
2018-07-30T09:28:18.107Z,1005.33
2018-07-30T09:29:18.114Z,1005.34
2018-07-30T09:30:18.214Z,1005.32
2018-07-30T09:31:18.173Z,1005.36
2018-07-30T09:32:18.108Z,1005.32
2018-07-30T09:33:18.173Z,1005.37
2018-07-30T09:34:18.107Z,1005.36
2018-07-30T09:35:18.174Z,1005.35
2018-07-30T09:36:18.098Z,1005.35
2018-07-30T09:37:18.140Z,1005.35
2018-07-30T09:38:18.146Z,1005.34
2018-07-30T09:39:18.226Z,1005.32
2018-07-30T09:40:18.213Z,1005.33
2018-07-30T09:41:18.194Z,1005.35
2018-07-30T09:42:18.209Z,1005.35
2018-07-30T09:43:18.179Z,1005.33
2018-07-30T09:44:18.156Z,1005.36
2018-07-30T09:45:18.154Z,1005.38
2018-07-30T09:46:18.183Z,1005.34
2018-07-30T09:47:18.119Z,1005.32
2018-07-30T09:48:18.116Z,1005.35
2018-07-30T09:49:18.182Z,1005.36
2018-07-30T09:50:18.184Z,1005.34
2018-07-30T09:51:18.136Z,1005.32
2018-07-30T09:52:18.185Z,1005.33
2018-07-30T09:53:18.123Z,1005.32
2018-07-30T09:54:18.186Z,1005.33
2018-07-30T09:55:18.121Z,1005.31
2018-07-30T09:56:18.294Z,1005.29
2018-07-30T09:57:18.109Z,1005.30
2018-07-30T09:58:18.090Z,1005.32
2018-07-30T09:59:18.130Z,1005.30
2018-07-30T10:00:18.225Z,1005.29
2018-07-30T10:01:18.151Z,1005.34
2018-07-30T10:02:18.099Z,1005.31
2018-07-30T10:03:18.227Z,1005.36
2018-07-30T10:04:18.221Z,1005.29
2018-07-30T10:05:18.168Z,1005.27
2018-07-30T10:06:18.286Z,1005.32
2018-07-30T10:07:18.162Z,1005.25
2018-07-30T10:08:18.115Z,1005.27
2018-07-30T10:09:18.156Z,1005.27
2018-07-30T10:10:18.236Z,1005.22
2018-07-30T10:11:18.175Z,1005.25
2018-07-30T10:12:18.200Z,1005.18
2018-07-30T10:13:18.228Z,1005.20
2018-07-30T10:14:18.238Z,1005.17
2018-07-30T10:15:18.237Z,1005.17
2018-07-30T10:16:18.200Z,1005.15
2018-07-30T10:17:18.201Z,1005.20
2018-07-30T10:18:18.307Z,1005.20
2018-07-30T10:19:18.248Z,1005.18
2018-07-30T10:20:18.237Z,1005.17
2018-07-30T10:21:18.228Z,1005.10
2018-07-30T10:22:18.228Z,1005.10
2018-07-30T10:23:18.225Z,1005.13
2018-07-30T10:24:18.228Z,1005.09
2018-07-30T10:25:18.241Z,1005.04
2018-07-30T10:26:18.173Z,1005.00
2018-07-30T10:27:18.213Z,1004.98
2018-07-30T10:28:18.182Z,1005.03
2018-07-30T10:29:18.265Z,1005.01
2018-07-30T10:30:18.244Z,1005.01
2018-07-30T10:31:18.211Z,1004.98
2018-07-30T10:32:18.243Z,1004.99
2018-07-30T10:33:18.171Z,1004.98
2018-07-30T10:34:18.217Z,1005.00
2018-07-30T10:35:18.275Z,1004.99
2018-07-30T10:36:18.083Z,1004.97
2018-07-30T10:37:18.194Z,1004.93
2018-07-30T10:38:18.327Z,1004.94
2018-07-30T10:39:18.151Z,1004.96
2018-07-30T10:40:18.183Z,1004.94
2018-07-30T10:41:18.201Z,1004.98
2018-07-30T10:42:18.179Z,1004.94
2018-07-30T10:43:18.109Z,1004.93
2018-07-30T10:44:18.179Z,1004.97
2018-07-30T10:45:18.229Z,1004.96
2018-07-30T10:46:18.258Z,1004.96
2018-07-30T10:47:18.247Z,1004.96
2018-07-30T10:48:18.229Z,1004.89
2018-07-30T10:49:18.161Z,1004.93
2018-07-30T10:50:18.224Z,1004.90
2018-07-30T10:51:18.157Z,1004.90
2018-07-30T10:52:18.181Z,1004.90
2018-07-30T10:53:18.265Z,1004.85
2018-07-30T10:54:18.247Z,1004.88
2018-07-30T10:55:18.206Z,1004.82
2018-07-30T10:56:18.231Z,1004.88
2018-07-30T10:57:18.233Z,1004.88
2018-07-30T10:58:18.236Z,1004.83
2018-07-30T10:59:18.235Z,1004.86
2018-07-30T11:00:18.167Z,1004.86
2018-07-30T11:01:18.233Z,1004.80
2018-07-30T11:02:18.166Z,1004.80
2018-07-30T11:03:18.235Z,1004.81
2018-07-30T11:04:18.167Z,1004.75
2018-07-30T11:05:18.171Z,1004.71
2018-07-30T11:06:18.200Z,1004.79
2018-07-30T11:07:18.179Z,1004.78
2018-07-30T11:08:18.240Z,1004.75
2018-07-30T11:09:18.267Z,1004.72
2018-07-30T11:10:18.237Z,1004.70
2018-07-30T11:11:18.273Z,1004.72
2018-07-30T11:12:18.157Z,1004.74
2018-07-30T11:13:18.216Z,1004.69
2018-07-30T11:14:18.263Z,1004.67
2018-07-30T11:15:18.268Z,1004.64
2018-07-30T11:16:18.207Z,1004.62
2018-07-30T11:18:18.207Z,1004.68
2018-07-30T11:19:18.264Z,1004.64
2018-07-30T11:20:18.168Z,1004.70
2018-07-30T11:21:18.210Z,1004.64
2018-07-30T11:22:18.269Z,1004.66
2018-07-30T11:23:18.221Z,1004.57
2018-07-30T11:24:18.278Z,1004.60
2018-07-30T11:25:18.259Z,1004.61
2018-07-30T11:26:18.262Z,1004.59
2018-07-30T11:27:18.156Z,1004.57
2018-07-30T11:28:18.175Z,1004.56
2018-07-30T11:29:18.275Z,1004.55
2018-07-30T11:30:18.204Z,1004.59
2018-07-30T11:31:18.227Z,1004.58
2018-07-30T11:32:18.274Z,1004.60
2018-07-30T11:33:18.253Z,1004.55
2018-07-30T11:34:18.216Z,1004.58
2018-07-30T11:35:18.291Z,1004.58
2018-07-30T11:36:18.296Z,1004.62
2018-07-30T11:37:18.232Z,1004.59
2018-07-30T11:38:18.222Z,1004.61
2018-07-30T11:39:18.246Z,1004.58
2018-07-30T11:40:18.236Z,1004.62
2018-07-30T11:41:18.220Z,1004.57
2018-07-30T11:42:18.241Z,1004.56
2018-07-30T11:43:18.228Z,1004.59
2018-07-30T11:44:18.246Z,1004.56
2018-07-30T11:45:18.221Z,1004.58
2018-07-30T11:46:18.286Z,1004.61
2018-07-30T11:47:18.303Z,1004.60
2018-07-30T11:48:18.257Z,1004.57
2018-07-30T11:49:18.266Z,1004.59
2018-07-30T11:50:18.161Z,1004.54
2018-07-30T11:51:18.244Z,1004.53
2018-07-30T11:52:18.291Z,1004.50
2018-07-30T11:53:18.188Z,1004.55
2018-07-30T11:54:18.295Z,1004.54
2018-07-30T11:55:18.247Z,1004.50
2018-07-30T11:56:18.171Z,1004.56
2018-07-30T11:57:18.239Z,1004.53
2018-07-30T11:58:18.292Z,1004.55
2018-07-30T11:59:18.193Z,1004.55
2018-07-30T12:00:18.275Z,1004.51
2018-07-30T12:01:18.299Z,1004.49
2018-07-30T12:02:18.241Z,1004.48
2018-07-30T12:03:18.314Z,1004.46
2018-07-30T12:04:18.311Z,1004.46
2018-07-30T12:05:18.280Z,1004.40
2018-07-30T12:06:18.216Z,1004.47
2018-07-30T12:07:18.288Z,1004.40